Cottonwood Airport (P52)
Cottonwood, AZ
Field Elevation: 3562
Lat: 34°43.80N  Long: 112°02.10W
CTAF/Unicom Freq: 122.7000
   
   NOTAM:   Runway 32 is the calm wind Runway
Weather Advisories
1/25/2015 14:14 Z
Altimeter 30.26" Hg
Wind 150° @ 0 KT
Gusts --
Visibility 10 SM
Temperature 4° C (39° F)
Dewpoint -7° C (19° F)
Relative Humidity 44%
Density Altitude --
Condensation Altitude 9,100 feet
  Wind and Runways
Indicated Runway = 14
History
 
 
More Info
All DigiWx sites map
NOAA Forecast
 
Airport IQ 5010
 
about DigiWx
 
FAA Disclaimer: The data displayed is for advisory purposes only and is not to be used for flight planning or operations. For official data, please call (not available) to hear the current automated AWOS voice message.
  METAR P52 251414Z AUTO 15000KT 10SM 04/M07 A3026